Time;durP1;ratioP1;P1;durP2;ratioP2;P2;SDS_P1;SDS_P2;PMS_P1;PMS_P2;Temp;Humidity;BMP_temperature;BMP_pressure;BME280_temperature;BME280_humidity;BME280_pressure;Samples;Min_cycle;Max_cycle;Signal;HPM_P1;HPM_P2
2022/08/21 00:02:18;;;;;;;4.35;2.33;;;22.80;53.60;;;;;;4966111;28;20455;-82
2022/08/21 00:04:44;;;;;;;3.83;2.13;;;22.80;53.70;;;;;;4981767;28;20069;-81
2022/08/21 00:07:10;;;;;;;3.42;2.03;;;22.80;53.70;;;;;;4997502;28;20061;-80
2022/08/21 00:09:36;;;;;;;3.47;1.88;;;22.70;53.70;;;;;;4997349;28;20034;-81
2022/08/21 00:12:03;;;;;;;3.13;1.80;;;22.70;53.70;;;;;;5015635;28;20516;-81
2022/08/21 00:14:29;;;;;;;4.10;2.40;;;22.70;53.80;;;;;;5014679;28;20056;-80
2022/08/21 00:16:55;;;;;;;3.10;1.90;;;22.60;53.80;;;;;;4997417;28;20485;-83
2022/08/21 00:19:24;;;;;;;3.13;2.10;;;22.60;53.90;;;;;;4997091;28;20026;-83
2022/08/21 00:21:51;;;;;;;4.43;2.22;;;22.60;53.90;;;;;;4997303;28;20026;-80
2022/08/21 00:24:19;;;;;;;3.42;2.05;;;22.60;53.90;;;;;;4996881;28;20038;-81
2022/08/21 00:26:46;;;;;;;3.58;2.22;;;22.50;54.00;;;;;;4980771;28;20022;-81
2022/08/21 00:29:11;;;;;;;4.72;2.30;;;22.50;54.00;;;;;;4997937;28;20068;-86
2022/08/21 00:31:37;;;;;;;3.30;1.90;;;22.50;54.00;;;;;;5000151;28;20033;-82
2022/08/21 00:34:03;;;;;;;3.17;1.98;;;22.40;54.00;;;;;;5018596;28;20485;-85
2022/08/21 00:36:29;;;;;;;4.00;2.03;;;22.40;54.10;;;;;;5006083;28;20109;-80
2022/08/21 00:38:56;;;;;;;2.72;1.83;;;22.40;54.20;;;;;;5003056;28;20502;-84
2022/08/21 00:41:23;;;;;;;4.10;2.20;;;22.30;54.20;;;;;;4980426;28;20026;-81
2022/08/21 00:43:49;;;;;;;4.10;1.98;;;22.30;54.20;;;;;;4980313;28;20521;-80
2022/08/21 00:46:15;;;;;;;4.40;2.25;;;22.30;54.20;;;;;;4981016;28;20041;-80
2022/08/21 00:48:41;;;;;;;3.85;2.22;;;22.30;54.30;;;;;;4996440;28;20030;-84
2022/08/21 00:51:12;;;;;;;3.60;2.00;;;22.30;54.30;;;;;;4963600;28;20141;-81
2022/08/21 00:53:41;;;;;;;4.95;2.30;;;22.20;54.40;;;;;;4997154;28;20056;-82
2022/08/21 00:56:09;;;;;;;4.10;2.35;;;22.20;54.40;;;;;;5014271;28;20033;-82
2022/08/21 00:58:37;;;;;;;3.72;2.10;;;22.20;54.40;;;;;;4996398;28;20030;-83
2022/08/21 01:01:04;;;;;;;3.17;1.88;;;22.20;54.50;;;;;;5013740;28;20037;-83
2022/08/21 01:03:31;;;;;;;3.00;1.92;;;22.10;54.50;;;;;;4979998;28;20414;-80
2022/08/21 01:05:57;;;;;;;4.10;2.00;;;22.10;54.50;;;;;;4996549;28;20168;-81
2022/08/21 01:08:23;;;;;;;3.25;2.00;;;22.10;54.60;;;;;;4964147;28;20443;-81
2022/08/21 01:10:50;;;;;;;2.80;1.77;;;22.00;54.60;;;;;;4980203;28;20422;-80
2022/08/21 01:13:18;;;;;;;2.95;1.80;;;22.00;54.60;;;;;;4996474;28;20022;-80
2022/08/21 01:15:48;;;;;;;2.17;1.77;;;22.00;54.70;;;;;;4996426;28;20045;-83
2022/08/21 01:18:14;;;;;;;2.85;1.73;;;22.00;54.70;;;;;;5014088;28;20201;-81
2022/08/21 01:20:58;;;;;;;2.97;2.10;;;21.90;54.70;;;;;;4980922;28;20419;-82
2022/08/21 01:23:24;;;;;;;3.15;1.98;;;21.90;54.80;;;;;;4996265;28;20036;-80
2022/08/21 01:25:49;;;;;;;2.58;1.88;;;21.90;54.80;;;;;;4963896;28;20113;-83
2022/08/21 01:28:15;;;;;;;2.55;1.77;;;21.90;54.90;;;;;;5013241;28;20033;-81
2022/08/21 01:30:43;;;;;;;2.22;1.52;;;21.80;54.90;;;;;;4996273;28;20092;-82
2022/08/21 01:33:09;;;;;;;3.45;2.00;;;21.80;55.00;;;;;;5013476;28;20065;-80
2022/08/21 01:35:35;;;;;;;2.50;1.73;;;21.80;55.00;;;;;;4980179;28;20030;-82
2022/08/21 01:38:01;;;;;;;2.92;1.80;;;21.80;55.10;;;;;;4996290;28;20042;-85
2022/08/21 01:40:27;;;;;;;2.75;1.88;;;21.70;55.10;;;;;;4996046;28;20426;-81
2022/08/21 01:42:53;;;;;;;3.30;1.80;;;21.70;55.10;;;;;;4995896;28;20042;-80
2022/08/21 01:45:19;;;;;;;2.60;1.80;;;21.60;55.10;;;;;;4979449;28;20386;-81
2022/08/21 01:47:45;;;;;;;3.05;1.83;;;21.60;55.20;;;;;;4996100;28;20137;-80
2022/08/21 01:50:16;;;;;;;2.55;1.90;;;21.60;55.20;;;;;;4995452;28;20038;-81
2022/08/21 01:52:42;;;;;;;2.95;1.80;;;21.60;55.30;;;;;;4979926;28;20026;-82
2022/08/21 01:55:09;;;;;;;3.65;1.83;;;21.60;55.30;;;;;;5013153;28;20486;-85
2022/08/21 01:57:35;;;;;;;2.33;1.70;;;21.50;55.30;;;;;;4995778;28;20042;-83
2022/08/21 02:00:03;;;;;;;3.10;1.80;;;21.50;55.30;;;;;;4963739;28;20471;-82
2022/08/21 02:02:38;;;;;;;2.35;1.60;;;21.50;55.30;;;;;;5013157;28;20044;-80
2022/08/21 02:05:05;;;;;;;3.72;1.88;;;21.50;55.30;;;;;;4998857;28;20073;-81
2022/08/21 02:07:47;;;;;;;2.22;1.83;;;21.50;55.40;;;;;;4984185;28;20038;-80
2022/08/21 02:10:16;;;;;;;2.70;1.77;;;21.40;55.50;;;;;;4999892;28;20058;-84
2022/08/21 02:12:42;;;;;;;3.00;2.00;;;21.40;55.50;;;;;;4999495;28;20072;-81
2022/08/21 02:15:09;;;;;;;3.35;2.05;;;21.40;55.50;;;;;;5000157;28;20144;-82
2022/08/21 02:17:46;;;;;;;3.08;1.95;;;21.30;55.50;;;;;;5000043;28;20386;-81
2022/08/21 02:20:19;;;;;;;3.03;1.73;;;21.30;55.60;;;;;;5022989;28;20109;-84
2022/08/21 02:22:44;;;;;;;2.92;1.85;;;21.30;55.60;;;;;;5025446;28;20030;-80
2022/08/21 02:25:10;;;;;;;2.40;1.67;;;21.30;55.50;;;;;;4986991;28;20125;-84
2022/08/21 02:27:41;;;;;;;2.30;1.55;;;21.20;55.60;;;;;;4998807;28;20037;-81
2022/08/21 02:30:10;;;;;;;2.08;1.70;;;21.20;55.70;;;;;;5016492;28;20034;-81
2022/08/21 02:32:35;;;;;;;2.63;1.85;;;21.20;55.60;;;;;;5016950;28;20021;-82
2022/08/21 02:35:01;;;;;;;2.53;1.80;;;21.20;55.60;;;;;;4998889;28;20129;-84
2022/08/21 02:37:27;;;;;;;2.38;1.73;;;21.20;55.90;;;;;;4982373;28;20136;-82
2022/08/21 02:39:53;;;;;;;2.92;1.88;;;21.20;55.70;;;;;;4982908;28;20042;-82
2022/08/21 02:42:18;;;;;;;1.88;1.65;;;21.10;56.30;;;;;;4982719;28;20026;-81
2022/08/21 02:44:44;;;;;;;3.33;1.70;;;21.10;55.80;;;;;;4999388;28;20046;-81
2022/08/21 02:47:10;;;;;;;2.95;1.92;;;21.10;55.80;;;;;;4983297;28;20454;-82
2022/08/21 02:49:35;;;;;;;2.25;1.80;;;21.10;55.90;;;;;;4996294;28;20446;-81
2022/08/21 02:52:01;;;;;;;1.77;1.60;;;21.00;55.80;;;;;;4963976;28;20038;-82
2022/08/21 02:54:27;;;;;;;3.42;1.95;;;21.00;56.50;;;;;;4996357;28;20038;-81
2022/08/21 02:56:53;;;;;;;2.22;1.55;;;21.00;55.90;;;;;;4962980;28;20403;-81
2022/08/21 02:59:19;;;;;;;2.90;1.88;;;21.00;56.60;;;;;;4979431;28;20056;-81
2022/08/21 03:01:45;;;;;;;1.98;1.70;;;21.00;56.00;;;;;;4979478;28;20466;-81
2022/08/21 03:04:10;;;;;;;3.50;2.10;;;20.90;56.00;;;;;;4963126;28;20039;-81
2022/08/21 03:06:36;;;;;;;2.53;1.77;;;20.90;56.00;;;;;;4962592;28;20352;-83
2022/08/21 03:09:03;;;;;;;3.92;1.98;;;20.90;56.00;;;;;;4962910;28;20113;-81
2022/08/21 03:11:28;;;;;;;2.00;1.67;;;20.90;56.10;;;;;;4963143;28;20023;-81
2022/08/21 03:13:54;;;;;;;2.40;1.80;;;20.90;56.10;;;;;;4978965;28;20370;-81
2022/08/21 03:16:20;;;;;;;2.92;2.00;;;20.90;56.10;;;;;;4962452;28;20133;-81
2022/08/21 03:18:46;;;;;;;1.85;1.70;;;20.80;56.10;;;;;;4978850;28;20027;-82
2022/08/21 03:21:12;;;;;;;2.53;1.75;;;20.80;56.10;;;;;;4978588;28;20027;-82
2022/08/21 03:23:39;;;;;;;3.67;1.90;;;20.80;56.20;;;;;;4979308;28;20031;-81
2022/08/21 03:26:06;;;;;;;2.30;1.80;;;20.70;56.20;;;;;;4979202;28;20126;-84
2022/08/21 03:28:32;;;;;;;2.05;1.70;;;20.70;56.20;;;;;;4962447;28;20070;-82
2022/08/21 03:30:58;;;;;;;2.95;1.98;;;20.70;56.20;;;;;;4962755;28;20030;-81
2022/08/21 03:33:24;;;;;;;3.05;1.90;;;20.70;56.20;;;;;;4978688;28;20030;-81
2022/08/21 03:36:07;;;;;;;3.08;1.88;;;20.70;56.30;;;;;;4962706;28;20190;-81
2022/08/21 03:38:34;;;;;;;2.45;1.77;;;20.60;56.50;;;;;;4978998;28;20470;-82
2022/08/21 03:41:01;;;;;;;1.80;1.52;;;20.60;56.70;;;;;;4978639;28;20026;-81
2022/08/21 03:43:28;;;;;;;2.90;2.08;;;20.60;56.30;;;;;;4979562;28;20034;-80
2022/08/21 03:45:54;;;;;;;2.38;1.70;;;20.60;56.40;;;;;;4978684;28;20034;-81
2022/08/21 03:48:20;;;;;;;2.17;1.70;;;20.50;56.40;;;;;;4978677;28;20027;-82
2022/08/21 03:50:49;;;;;;;2.92;1.73;;;20.50;56.40;;;;;;4970967;28;20057;-82
2022/08/21 03:53:16;;;;;;;2.60;1.90;;;20.50;56.50;;;;;;4962293;28;20084;-81
2022/08/21 03:55:41;;;;;;;2.33;1.83;;;20.50;56.50;;;;;;4995538;28;20030;-82
2022/08/21 03:58:08;;;;;;;2.75;1.90;;;20.50;56.50;;;;;;4978137;28;20042;-82
2022/08/21 04:00:34;;;;;;;2.90;1.83;;;20.40;56.50;;;;;;4994091;28;20022;-81
2022/08/21 04:03:00;;;;;;;2.45;1.75;;;20.50;56.60;;;;;;4997152;28;20081;-81
2022/08/21 04:05:29;;;;;;;2.38;1.80;;;20.40;56.50;;;;;;4984700;28;20030;-83
2022/08/21 04:08:01;;;;;;;2.70;1.90;;;20.40;56.60;;;;;;5006065;28;20037;-84
2022/08/21 04:10:30;;;;;;;2.28;1.83;;;20.40;56.70;;;;;;4987800;28;20117;-81
2022/08/21 04:12:56;;;;;;;2.72;1.90;;;20.40;56.70;;;;;;4986632;28;20481;-85
2022/08/21 04:15:24;;;;;;;2.72;1.85;;;20.40;56.70;;;;;;5002818;28;20038;-82
2022/08/21 04:17:50;;;;;;;3.25;2.25;;;20.30;56.70;;;;;;4987654;28;20066;-83
2022/08/21 04:20:17;;;;;;;3.28;1.98;;;20.30;56.70;;;;;;5005640;28;20027;-86
2022/08/21 04:22:44;;;;;;;2.13;1.52;;;20.30;56.80;;;;;;4974931;28;20027;-84
2022/08/21 04:25:10;;;;;;;2.63;1.83;;;20.30;56.80;;;;;;5007499;28;20126;-85
2022/08/21 04:27:36;;;;;;;2.20;1.77;;;20.30;56.80;;;;;;4989790;28;20035;-84
2022/08/21 04:30:03;;;;;;;2.78;1.83;;;20.20;56.80;;;;;;4988222;28;20037;-86
2022/08/21 04:32:29;;;;;;;3.47;2.22;;;20.20;56.80;;;;;;4999697;28;20094;-81
2022/08/21 04:35:04;;;;;;;3.25;2.00;;;20.20;56.80;;;;;;4996441;28;20440;-81
2022/08/21 04:37:30;;;;;;;3.38;2.25;;;20.20;57.00;;;;;;4993982;28;20038;-81
2022/08/21 04:39:58;;;;;;;2.50;2.10;;;20.10;56.90;;;;;;4994749;28;20113;-81
2022/08/21 04:42:27;;;;;;;3.22;2.20;;;20.20;56.90;;;;;;4978087;28;20043;-82
2022/08/21 04:44:54;;;;;;;2.45;2.10;;;20.10;57.00;;;;;;4993711;28;20034;-81
2022/08/21 04:47:20;;;;;;;3.58;1.85;;;20.10;57.00;;;;;;4994830;28;20045;-82
2022/08/21 04:49:47;;;;;;;2.30;2.00;;;20.10;57.00;;;;;;4993171;28;20133;-81
2022/08/21 04:52:17;;;;;;;2.10;1.90;;;20.00;57.00;;;;;;4993940;28;20038;-84
2022/08/21 04:54:45;;;;;;;2.55;1.98;;;20.00;57.00;;;;;;4993832;28;20027;-81
2022/08/21 04:57:11;;;;;;;2.22;1.80;;;20.10;57.10;;;;;;4994430;28;20047;-82
2022/08/21 04:59:45;;;;;;;2.50;2.08;;;20.00;57.10;;;;;;4977306;28;20039;-81
2022/08/21 05:02:13;;;;;;;3.45;1.90;;;20.00;57.20;;;;;;4994893;28;20467;-82
2022/08/21 05:04:48;;;;;;;2.22;2.00;;;20.00;57.20;;;;;;4961600;28;20121;-81
2022/08/21 05:07:19;;;;;;;3.47;2.45;;;20.00;57.30;;;;;;4994129;28;20041;-83
2022/08/21 05:09:45;;;;;;;3.55;2.30;;;19.90;57.20;;;;;;4993584;28;20053;-82
2022/08/21 05:12:11;;;;;;;3.08;2.03;;;19.90;57.20;;;;;;4977789;28;20030;-82
2022/08/21 05:14:37;;;;;;;2.45;2.00;;;19.90;57.30;;;;;;4977073;28;20022;-81
2022/08/21 05:17:04;;;;;;;2.70;2.10;;;19.90;57.40;;;;;;4960537;28;20064;-82
2022/08/21 05:19:30;;;;;;;2.63;1.98;;;19.90;57.40;;;;;;4993068;28;20038;-81
2022/08/21 05:21:55;;;;;;;2.72;2.10;;;19.90;57.40;;;;;;4993063;28;20023;-81
2022/08/21 05:24:21;;;;;;;2.50;2.00;;;19.80;57.50;;;;;;4992828;28;20390;-81
2022/08/21 05:26:47;;;;;;;3.10;2.13;;;19.90;57.50;;;;;;4994422;28;20513;-81
2022/08/21 05:29:14;;;;;;;2.72;1.98;;;19.80;57.50;;;;;;4960624;28;20124;-85
2022/08/21 05:31:40;;;;;;;3.28;2.30;;;19.80;57.60;;;;;;4992967;28;20090;-82
2022/08/21 05:34:06;;;;;;;2.47;2.00;;;19.80;57.50;;;;;;4993098;28;20463;-84
2022/08/21 05:36:32;;;;;;;2.60;2.15;;;19.80;57.60;;;;;;4992715;28;20034;-81
2022/08/21 05:38:58;;;;;;;2.30;1.83;;;19.80;57.70;;;;;;4976820;28;20045;-82
2022/08/21 05:41:23;;;;;;;2.33;2.00;;;19.80;57.70;;;;;;4960481;28;20117;-82
2022/08/21 05:43:49;;;;;;;2.90;2.10;;;19.80;57.70;;;;;;4993656;28;20034;-81
2022/08/21 05:46:15;;;;;;;3.33;2.20;;;19.70;57.70;;;;;;4980623;28;20539;-86
2022/08/21 05:48:41;;;;;;;2.60;2.15;;;19.80;57.80;;;;;;4982408;28;20467;-82
2022/08/21 05:51:11;;;;;;;3.10;2.30;;;19.70;57.80;;;;;;4993546;28;20114;-82
2022/08/21 05:53:37;;;;;;;2.60;2.05;;;19.70;57.80;;;;;;4994186;28;20033;-82
2022/08/21 05:56:04;;;;;;;2.95;2.08;;;19.70;57.90;;;;;;4976807;28;20023;-82
2022/08/21 05:58:32;;;;;;;2.53;2.08;;;19.70;58.00;;;;;;4976167;28;20042;-81
2022/08/21 06:00:59;;;;;;;2.60;1.95;;;19.70;57.90;;;;;;4960642;28;20035;-81
2022/08/21 06:03:28;;;;;;;2.42;2.03;;;19.70;58.00;;;;;;4994091;28;20054;-82
2022/08/21 06:05:55;;;;;;;2.58;2.10;;;19.70;58.00;;;;;;4994036;28;20022;-81
2022/08/21 06:08:22;;;;;;;2.60;2.13;;;19.70;58.10;;;;;;4994223;28;20038;-82
2022/08/21 06:10:49;;;;;;;3.05;2.20;;;19.70;58.00;;;;;;4992537;28;20085;-82
2022/08/21 06:13:16;;;;;;;3.03;2.35;;;19.70;58.10;;;;;;4944018;28;20061;-81
2022/08/21 06:15:42;;;;;;;2.40;2.03;;;19.70;58.10;;;;;;4960405;28;20030;-82
2022/08/21 06:18:08;;;;;;;3.17;2.20;;;19.70;58.10;;;;;;4976449;28;20041;-82
2022/08/21 06:20:34;;;;;;;2.78;2.00;;;19.60;58.10;;;;;;4960385;28;20438;-81
2022/08/21 06:23:00;;;;;;;3.80;2.30;;;19.70;58.10;;;;;;4993829;28;20030;-81
2022/08/21 06:25:27;;;;;;;2.65;2.10;;;19.70;58.20;;;;;;4992386;28;20121;-81
2022/08/21 06:27:53;;;;;;;3.97;2.60;;;19.70;58.20;;;;;;4992673;28;20049;-82
2022/08/21 06:30:19;;;;;;;3.72;2.30;;;19.70;58.20;;;;;;4960175;28;20026;-81
2022/08/21 06:32:45;;;;;;;2.55;2.05;;;19.70;58.20;;;;;;4992134;28;20084;-82
2022/08/21 06:35:11;;;;;;;3.13;2.33;;;19.70;58.20;;;;;;4994066;28;20026;-82
2022/08/21 06:37:37;;;;;;;3.08;2.15;;;19.70;58.20;;;;;;4993160;28;20049;-83
2022/08/21 06:40:05;;;;;;;3.15;2.60;;;19.60;58.10;;;;;;4976242;28;20026;-81
2022/08/21 06:42:31;;;;;;;3.13;2.45;;;19.70;58.20;;;;;;4959967;28;20042;-81
2022/08/21 06:44:57;;;;;;;3.03;2.40;;;19.70;58.30;;;;;;4976786;28;20062;-82
2022/08/21 06:47:23;;;;;;;2.78;2.38;;;19.70;58.30;;;;;;4992512;28;20478;-81
2022/08/21 06:49:49;;;;;;;3.67;2.20;;;19.70;58.20;;;;;;4961647;28;20046;-82
2022/08/21 06:52:15;;;;;;;2.42;2.00;;;19.70;58.20;;;;;;4979993;28;20427;-81
2022/08/21 06:54:40;;;;;;;2.75;1.90;;;19.70;58.30;;;;;;4978679;28;20031;-81
2022/08/21 06:57:06;;;;;;;2.90;2.10;;;19.70;58.30;;;;;;4979235;28;20454;-86
2022/08/21 06:59:32;;;;;;;3.10;2.08;;;19.70;58.30;;;;;;4979295;28;20030;-84
2022/08/21 07:01:58;;;;;;;2.65;2.03;;;19.70;58.20;;;;;;4979711;28;20400;-82
2022/08/21 07:04:24;;;;;;;3.05;2.17;;;19.70;58.30;;;;;;4979142;28;20469;-82
2022/08/21 07:06:50;;;;;;;2.42;2.05;;;19.80;58.40;;;;;;4996470;28;20050;-81
2022/08/21 07:09:16;;;;;;;2.80;2.05;;;19.70;58.30;;;;;;4978559;28;20490;-84
2022/08/21 07:11:42;;;;;;;2.03;1.80;;;19.70;58.20;;;;;;4978580;28;20038;-80
2022/08/21 07:14:08;;;;;;;2.53;2.00;;;19.80;58.30;;;;;;4978513;28;20026;-81
2022/08/21 07:16:34;;;;;;;4.47;2.30;;;19.80;58.30;;;;;;4978532;28;20064;-82
2022/08/21 07:19:00;;;;;;;2.88;2.00;;;19.80;58.30;;;;;;4947175;28;20085;-81
2022/08/21 07:21:26;;;;;;;2.78;2.10;;;19.80;58.30;;;;;;4996131;28;20035;-80
2022/08/21 07:23:52;;;;;;;2.92;2.13;;;19.80;58.30;;;;;;4962327;28;20066;-81
2022/08/21 07:26:21;;;;;;;4.85;2.25;;;19.80;58.30;;;;;;5001497;28;20034;-81
2022/08/21 07:28:48;;;;;;;3.40;2.22;;;19.80;58.30;;;;;;4968674;28;20034;-82
2022/08/21 07:31:17;;;;;;;2.80;1.85;;;19.80;58.30;;;;;;4989618;28;20038;-81
2022/08/21 07:33:44;;;;;;;2.05;1.80;;;19.80;58.30;;;;;;4973596;28;20026;-81
2022/08/21 07:36:11;;;;;;;2.85;1.75;;;19.80;58.30;;;;;;4979070;28;20033;-84
2022/08/21 07:38:36;;;;;;;2.67;1.77;;;19.90;58.30;;;;;;4978995;28;20041;-83
2022/08/21 07:41:16;;;;;;;2.50;1.80;;;19.90;58.30;;;;;;4995530;28;20030;-82
2022/08/21 07:43:43;;;;;;;2.20;1.77;;;19.90;58.30;;;;;;4978935;28;20030;-83
2022/08/21 07:46:09;;;;;;;1.90;1.55;;;19.90;58.20;;;;;;4978412;28;20154;-83
2022/08/21 07:48:36;;;;;;;2.67;1.92;;;19.90;58.30;;;;;;4978027;28;20070;-84
2022/08/21 07:51:06;;;;;;;2.30;1.63;;;19.90;58.30;;;;;;5007412;28;20054;-83
2022/08/21 07:53:32;;;;;;;2.58;1.70;;;19.90;58.30;;;;;;4998581;28;20060;-83
2022/08/21 07:55:58;;;;;;;2.70;1.80;;;20.00;58.30;;;;;;4998027;28;20484;-82
2022/08/21 07:58:24;;;;;;;2.15;1.77;;;19.90;58.20;;;;;;5014928;28;20038;-82
2022/08/21 08:00:50;;;;;;;2.55;1.83;;;20.00;58.30;;;;;;4997649;28;20104;-81
2022/08/21 08:03:16;;;;;;;3.47;2.33;;;20.00;58.30;;;;;;4997882;28;20041;-82
2022/08/21 08:05:41;;;;;;;2.47;1.73;;;20.00;58.30;;;;;;4981136;28;20029;-82
2022/08/21 08:08:07;;;;;;;2.97;1.80;;;20.00;58.30;;;;;;5014922;28;20038;-82
2022/08/21 08:10:33;;;;;;;2.95;1.77;;;20.00;58.30;;;;;;4998147;28;20455;-83
2022/08/21 08:12:59;;;;;;;3.20;2.00;;;20.10;58.40;;;;;;4997454;28;20034;-81
2022/08/21 08:15:26;;;;;;;1.88;1.60;;;20.10;58.40;;;;;;4998095;28;20132;-82
2022/08/21 08:17:54;;;;;;;1.88;1.73;;;20.10;58.40;;;;;;5014723;28;20038;-83
2022/08/21 08:20:22;;;;;;;2.75;1.55;;;20.20;58.50;;;;;;4997866;28;20030;-82
2022/08/21 08:22:49;;;;;;;1.88;1.58;;;20.20;58.40;;;;;;4997102;28;20033;-81
2022/08/21 08:25:16;;;;;;;1.95;1.63;;;20.20;58.40;;;;;;4980933;28;20056;-81
2022/08/21 08:27:42;;;;;;;2.85;1.73;;;20.30;58.40;;;;;;4981463;28;20045;-80
2022/08/21 08:30:10;;;;;;;2.33;1.75;;;20.30;58.40;;;;;;4980738;28;20414;-83
2022/08/21 08:32:37;;;;;;;2.00;1.67;;;20.30;58.40;;;;;;4997093;28;20095;-81
2022/08/21 08:35:03;;;;;;;2.58;1.70;;;20.30;58.30;;;;;;4980455;28;20030;-81
2022/08/21 08:37:29;;;;;;;2.25;1.55;;;20.40;58.30;;;;;;4996552;28;20034;-81
2022/08/21 08:39:55;;;;;;;2.05;1.50;;;20.40;58.20;;;;;;4980684;28;20018;-81
2022/08/21 08:42:30;;;;;;;1.92;1.48;;;20.50;58.30;;;;;;4996821;28;20065;-80
2022/08/21 08:45:03;;;;;;;2.33;1.52;;;20.50;58.20;;;;;;4996734;28;20082;-82
2022/08/21 08:47:32;;;;;;;2.10;1.40;;;20.60;58.20;;;;;;4980472;28;20045;-81
2022/08/21 08:50:10;;;;;;;1.92;1.55;;;20.70;58.10;;;;;;5013888;28;20053;-81
2022/08/21 08:52:52;;;;;;;2.70;1.52;;;20.70;58.00;;;;;;5014383;28;20080;-81
2022/08/21 08:55:21;;;;;;;1.80;1.35;;;20.80;58.00;;;;;;4997155;28;20033;-80
2022/08/21 08:57:49;;;;;;;1.90;1.55;;;20.90;57.90;;;;;;4996327;28;20108;-81
2022/08/21 09:00:18;;;;;;;2.03;1.50;;;20.90;57.90;;;;;;4965890;28;20038;-82
2022/08/21 09:02:46;;;;;;;2.38;1.67;;;21.00;57.80;;;;;;4998537;28;20030;-79
2022/08/21 09:05:35;;;;;;;3.97;2.00;;;21.00;57.70;;;;;;5015280;28;20029;-82
2022/08/21 09:08:06;;;;;;;4.47;2.45;;;21.10;59.10;;;;;;5014479;28;20066;-82
2022/08/21 09:10:51;;;;;;;3.88;2.50;;;21.30;60.10;;;;;;4996680;28;20036;-84
2022/08/21 09:13:55;;;;;;;6.05;2.75;;;21.40;61.00;;;;;;5013717;28;20025;-83
2022/08/21 09:16:36;;;;;;;5.15;2.20;;;21.50;61.40;;;;;;4980722;28;20205;-82
2022/08/21 09:19:26;;;;;;;5.20;2.30;;;21.70;61.70;;;;;;5008231;28;20022;-83
2022/08/21 09:22:10;;;;;;;3.47;1.92;;;21.80;61.70;;;;;;5014883;28;20026;-88
2022/08/21 09:24:51;;;;;;;5.53;2.42;;;21.90;61.80;;;;;;5015873;28;20034;-87
2022/08/21 09:27:19;;;;;;;3.40;1.80;;;22.10;61.80;;;;;;4996350;28;20041;-86
2022/08/21 09:29:48;;;;;;;4.40;2.13;;;22.20;61.60;;;;;;4995801;28;20032;-86
2022/08/21 09:32:23;;;;;;;4.40;2.13;;;22.30;61.70;;;;;;4980294;28;20037;-82
2022/08/21 09:34:59;;;;;;;3.28;1.88;;;22.40;61.60;;;;;;4980299;28;20057;-84
2022/08/21 09:37:28;;;;;;;3.63;1.90;;;22.50;61.40;;;;;;5013298;28;20124;-84
2022/08/21 09:39:57;;;;;;;5.28;2.25;;;22.60;61.20;;;;;;5013970;28;20076;-84
2022/08/21 09:42:31;;;;;;;2.78;1.83;;;22.70;61.20;;;;;;4979967;28;20121;-83
2022/08/21 09:45:09;;;;;;;3.55;1.90;;;22.80;61.30;;;;;;4996360;28;20064;-84
2022/08/21 09:47:35;;;;;;;4.18;1.80;;;22.90;61.10;;;;;;5013189;28;20117;-84
2022/08/21 09:50:13;;;;;;;3.22;1.75;;;23.10;60.70;;;;;;4979772;28;20061;-85
2022/08/21 09:53:00;;;;;;;4.70;1.80;;;23.20;60.70;;;;;;5013678;28;20084;-84
2022/08/21 09:58:34;;;;;;;3.13;1.70;;;23.40;60.50;;;;;;5013145;28;20034;-84
2022/08/21 10:01:03;;;;;;;3.28;1.92;;;23.50;60.20;;;;;;4979934;28;20034;-84
2022/08/21 10:03:29;;;;;;;3.20;1.65;;;23.60;59.80;;;;;;4996029;28;20058;-82
2022/08/21 10:06:08;;;;;;;2.92;1.40;;;23.60;59.50;;;;;;4979593;28;20132;-84
2022/08/21 10:08:36;;;;;;;3.67;1.60;;;23.70;59.30;;;;;;4996129;28;20041;-83
2022/08/21 10:11:14;;;;;;;4.30;1.50;;;23.80;59.00;;;;;;4996162;28;20125;-83
2022/08/21 10:14:01;;;;;;;2.70;1.50;;;23.80;58.90;;;;;;4995767;28;20022;-83
2022/08/21 10:16:42;;;;;;;3.15;1.40;;;23.90;58.70;;;;;;4979261;28;20041;-82
2022/08/21 10:19:32;;;;;;;2.78;1.38;;;24.00;58.60;;;;;;4996114;28;20041;-86
2022/08/21 10:22:20;;;;;;;2.35;1.13;;;24.10;58.50;;;;;;4980248;28;20026;-85
2022/08/21 10:25:08;;;;;;;3.05;1.25;;;24.10;58.10;;;;;;4997233;28;20034;-85
2022/08/21 10:27:42;;;;;;;2.85;1.30;;;24.20;58.00;;;;;;5000513;28;20054;-84
2022/08/21 10:30:12;;;;;;;;;;;24.20;57.80;;;;;;5000032;28;20030;-85
2022/08/21 10:32:58;;;;;;;3.58;1.20;;;24.20;57.60;;;;;;4999974;28;19909;-85
2022/08/21 10:35:39;;;;;;;3.42;1.35;;;24.30;57.50;;;;;;5000100;28;20041;-84
2022/08/21 10:38:30;;;;;;;3.90;1.50;;;24.40;57.40;;;;;;5018332;28;20121;-84
2022/08/21 10:41:05;;;;;;;3.70;1.20;;;24.40;57.20;;;;;;5003040;28;20034;-83
2022/08/21 10:43:49;;;;;;;;;;;24.50;57.00;;;;;;5000675;28;20084;-84
2022/08/21 10:46:51;;;;;;;3.20;1.30;;;24.50;56.90;;;;;;5013204;28;19910;-80
2022/08/21 10:49:37;;;;;;;1.55;0.90;;;24.60;56.70;;;;;;4984317;28;20044;-83
2022/08/21 10:52:02;;;;;;;2.38;1.20;;;24.60;56.50;;;;;;4990686;28;20038;-84
2022/08/21 10:54:37;;;;;;;1.85;1.30;;;24.70;56.20;;;;;;5000142;28;20116;-86
2022/08/21 10:57:22;;;;;;;2.30;1.20;;;24.80;56.20;;;;;;4984060;28;20466;-84
2022/08/21 10:59:57;;;;;;;2.38;1.10;;;24.80;56.10;;;;;;4983316;28;20054;-84
2022/08/21 11:02:30;;;;;;;;;;;24.90;56.00;;;;;;4984064;28;20026;-85
2022/08/21 11:05:27;;;;;;;2.97;1.30;;;25.00;55.90;;;;;;4983512;28;19910;-78
2022/08/21 11:08:17;;;;;;;3.08;1.10;;;25.10;55.80;;;;;;4998796;28;20504;-79
2022/08/21 11:10:52;;;;;;;2.85;1.23;;;25.10;55.80;;;;;;4998944;28;20030;-82
2022/08/21 11:13:26;;;;;;;4.38;1.40;;;25.20;55.80;;;;;;5016162;28;20338;-82
2022/08/21 11:16:11;;;;;;;;;;;25.20;55.60;;;;;;4999043;28;20050;-80
2022/08/21 11:19:18;;;;;;;1.85;1.00;;;25.30;55.60;;;;;;4998699;28;19917;-79
2022/08/21 11:21:50;;;;;;;2.17;1.00;;;25.40;55.70;;;;;;4998684;28;20045;-83
2022/08/21 11:24:44;;;;;;;2.53;1.20;;;25.40;55.60;;;;;;5016185;28;20101;-80
2022/08/21 11:27:33;;;;;;;3.53;1.17;;;25.50;56.00;;;;;;4998167;28;20037;-80
2022/08/21 11:30:00;;;;;;;1.90;1.10;;;25.50;56.20;;;;;;5015980;28;20139;-82
2022/08/21 11:32:41;;;;;;;2.22;1.10;;;25.60;56.40;;;;;;4981973;28;20033;-80
2022/08/21 11:35:22;;;;;;;3.20;1.17;;;25.70;56.80;;;;;;4997879;28;20473;-80
2022/08/21 11:37:58;;;;;;;3.28;1.25;;;25.70;56.90;;;;;;4998108;28;20038;-80
2022/08/21 11:41:02;;;;;;;1.77;0.98;;;25.80;57.10;;;;;;4998022;28;20105;-82
2022/08/21 11:43:53;;;;;;;1.48;0.90;;;25.90;57.40;;;;;;4998362;28;20516;-80
2022/08/21 11:46:41;;;;;;;1.98;0.90;;;25.90;57.60;;;;;;4998214;28;20112;-81
2022/08/21 11:49:42;;;;;;;2.85;1.00;;;26.00;57.70;;;;;;4998690;28;20033;-81
2022/08/21 11:52:12;;;;;;;1.75;1.00;;;26.00;57.80;;;;;;5015372;28;20471;-82
2022/08/21 11:54:48;;;;;;;1.60;0.88;;;26.00;57.80;;;;;;4982302;28;20053;-81
2022/08/21 11:57:42;;;;;;;1.77;0.98;;;26.10;58.00;;;;;;4997718;28;20033;-81
2022/08/21 12:00:24;;;;;;;1.65;1.00;;;26.20;58.20;;;;;;4997797;28;20041;-81
2022/08/21 12:02:54;;;;;;;1.80;0.82;;;26.20;58.20;;;;;;5014879;28;20490;-80
2022/08/21 12:05:53;;;;;;;2.13;1.00;;;26.20;58.20;;;;;;5019356;28;20052;-81
2022/08/21 12:08:32;;;;;;;2.00;0.90;;;26.30;58.50;;;;;;4981351;28;20030;-82
2022/08/21 12:11:05;;;;;;;2.05;1.10;;;26.30;58.30;;;;;;5015163;28;20101;-81
2022/08/21 12:13:51;;;;;;;1.60;1.00;;;26.30;58.20;;;;;;4997818;28;20494;-82
2022/08/21 12:16:32;;;;;;;1.75;0.80;;;26.40;58.30;;;;;;4997594;28;20517;-83
2022/08/21 12:19:08;;;;;;;2.35;1.00;;;26.40;58.40;;;;;;4981343;28;20038;-82
2022/08/21 12:21:47;;;;;;;1.83;1.00;;;26.40;58.30;;;;;;4997114;28;20030;-83
2022/08/21 12:24:13;;;;;;;1.90;1.08;;;26.40;58.20;;;;;;4997173;28;20526;-83
2022/08/21 12:26:55;;;;;;;1.23;0.90;;;26.50;58.20;;;;;;4996952;28;20025;-82
2022/08/21 12:29:27;;;;;;;1.63;0.95;;;26.50;58.40;;;;;;5014397;28;20065;-82
2022/08/21 12:32:00;;;;;;;1.83;1.05;;;26.50;58.20;;;;;;5014667;28;20109;-82
2022/08/21 12:34:48;;;;;;;2.20;1.05;;;26.50;58.10;;;;;;5014688;28;20032;-81
2022/08/21 12:37:16;;;;;;;0.98;0.88;;;26.60;58.20;;;;;;4981156;28;20141;-84
2022/08/21 12:39:46;;;;;;;1.30;0.80;;;26.60;58.10;;;;;;4997643;28;20056;-82
2022/08/21 12:42:20;;;;;;;1.55;1.00;;;26.60;58.00;;;;;;4997024;28;20485;-82
2022/08/21 12:44:49;;;;;;;2.78;1.02;;;26.70;58.00;;;;;;4980496;28;20033;-80
2022/08/21 12:47:19;;;;;;;1.23;0.90;;;26.60;57.80;;;;;;4979626;28;20026;-80
2022/08/21 12:50:11;;;;;;;1.15;0.85;;;26.70;57.80;;;;;;4996540;28;20033;-82
2022/08/21 12:52:44;;;;;;;1.80;1.02;;;26.70;57.80;;;;;;5013921;28;20026;-81
2022/08/21 12:55:16;;;;;;;1.75;1.00;;;26.70;57.70;;;;;;4979827;28;20117;-82
2022/08/21 12:57:42;;;;;;;1.52;1.08;;;26.70;57.60;;;;;;4980223;28;20048;-82
2022/08/21 13:00:12;;;;;;;1.27;0.93;;;26.80;57.60;;;;;;5013901;28;20025;-80
2022/08/21 13:02:52;;;;;;;1.50;0.90;;;26.80;57.60;;;;;;4996957;28;20031;-82
2022/08/21 13:05:35;;;;;;;1.25;0.65;;;26.80;57.60;;;;;;4981149;28;20041;-80
2022/08/21 13:08:11;;;;;;;1.05;0.90;;;26.80;57.60;;;;;;4996697;28;20048;-82
2022/08/21 13:10:39;;;;;;;2.08;0.98;;;26.80;57.50;;;;;;4981531;28;20543;-80